Главная страница
METAR-TAF:

METAR-TAF

Аэропорты :

Шеллефтео, Швеция

широта: 64-38N, долгота: 021-05E, высота над уровнем моря: 49 м

Текущие метеонаблюдения

Эта сводка был подготовлена 32 минут назад, в 20:20 UTC
Ветер 4 Узел от восточный
Температура 13°C
Влажность 72%
Давление 1012 hPa
Видимость 10 км и более
Нет облачности ниже 1500 м, и нет кучево-дождевой облачности

METAR: ESNS 132020Z 09004KT CAVOK 13/08 Q1012

Время: 22:52 (20:52 UTC)

Прогноз

Эта сводка был подготовлена 3 часа и 22 минут назад, в 17:30 UTC
Прогноз действительный с 13-го 18 UTC до 13-го 22 UTC
Ветер 6 Узел от восточный
Видимость 10 км и более
Нет облачности ниже 1500 м, и нет кучево-дождевой облачности

TAF: ESNS 131730Z 1318/1322 08006KT CAVOK

Метеонаблюдения и прогнозы для более 4000 аэропортов (сводки METAR и TAF).

Имеющиеся станции представлены на карте желтыми и красными точками.

Чтобы увидеть название станции, наведите на нее мышь.

Затем щелкните, чтобы увидеть метеонаблюдения и метеопрогнозы.

Управление картой: чтобы увеличить масштаб, щелкните зеленые кнопки с черным крестиком; чтобы уменьшить масштаб, щелкните зеленую кнопку с тире; для просмотра соседних карт щелкайте зеленые стрелки.


METAR-TAF: